Time;durP1;ratioP1;P1;durP2;ratioP2;P2;SDS_P1;SDS_P2;PMS_P1;PMS_P2;Temp;Humidity;BMP_temperature;BMP_pressure;BME280_temperature;BME280_humidity;BME280_pressure;Samples;Min_cycle;Max_cycle;Signal;HPM_P1;HPM_P2
2022/08/09 00:01:15;;;;;;;0.40;0.20;;;15.10;99.90;;;;;;5032592;28;20021;-73
2022/08/09 00:03:40;;;;;;;0.63;0.03;;;15.10;99.90;;;;;;5034649;28;20059;-72
2022/08/09 00:06:06;;;;;;;0.35;0.13;;;15.00;99.90;;;;;;5034462;28;20033;-72
2022/08/09 00:08:32;;;;;;;1.33;0.20;;;15.00;99.90;;;;;;5033810;28;20029;-72
2022/08/09 00:11:00;;;;;;;3.80;0.30;;;14.90;99.90;;;;;;5032421;28;20471;-72
2022/08/09 00:13:27;;;;;;;1.58;0.30;;;14.90;99.90;;;;;;5032330;28;20112;-72
2022/08/09 00:15:53;;;;;;;1.90;0.17;;;14.80;99.90;;;;;;5030967;28;20052;-73
2022/08/09 00:18:18;;;;;;;3.30;0.10;;;14.80;99.90;;;;;;5030279;28;20025;-73
2022/08/09 00:20:44;;;;;;;2.72;0.22;;;14.80;99.90;;;;;;5031818;28;20097;-73
2022/08/09 00:23:10;;;;;;;3.22;0.17;;;14.70;99.90;;;;;;5031698;28;20033;-73
2022/08/09 00:25:35;;;;;;;0.55;0.10;;;14.70;99.90;;;;;;5031957;28;20018;-73
2022/08/09 00:28:02;;;;;;;0.52;0.35;;;14.70;99.90;;;;;;5030200;28;20530;-73
2022/08/09 00:30:28;;;;;;;1.27;0.47;;;14.70;99.90;;;;;;5032177;28;20384;-73
2022/08/09 00:32:53;;;;;;;6.30;0.20;;;14.70;99.90;;;;;;5033308;28;20109;-72
2022/08/09 00:35:19;;;;;;;1.73;0.35;;;14.60;99.90;;;;;;5033524;28;20022;-73
2022/08/09 00:37:45;;;;;;;0.52;0.43;;;14.60;99.90;;;;;;5033419;28;20017;-73
2022/08/09 00:40:11;;;;;;;1.70;0.40;;;14.60;99.90;;;;;;5033446;28;20025;-73
2022/08/09 00:42:37;;;;;;;1.30;0.35;;;14.60;99.90;;;;;;5032117;28;20597;-73
2022/08/09 00:45:03;;;;;;;5.10;0.40;;;14.60;99.90;;;;;;5032002;28;20068;-73
2022/08/09 00:47:29;;;;;;;1.08;0.22;;;14.60;99.90;;;;;;5033487;28;20036;-73
2022/08/09 00:49:55;;;;;;;0.75;0.20;;;14.50;99.90;;;;;;5033351;28;20025;-73
2022/08/09 00:52:21;;;;;;;0.77;0.10;;;14.50;99.90;;;;;;5033159;28;20040;-73
2022/08/09 00:54:48;;;;;;;0.77;0.20;;;14.40;99.90;;;;;;5033608;28;20085;-73
2022/08/09 00:57:13;;;;;;;1.20;0.57;;;14.40;99.90;;;;;;5033862;28;20021;-73
2022/08/09 00:59:42;;;;;;;0.52;0.10;;;14.40;99.90;;;;;;5031956;28;20113;-73
2022/08/09 01:02:08;;;;;;;2.35;0.50;;;14.40;99.90;;;;;;5033095;28;20024;-73
2022/08/09 01:04:45;;;;;;;3.80;0.60;;;14.30;99.90;;;;;;5031924;28;20463;-73
2022/08/09 01:07:23;;;;;;;2.03;0.40;;;14.40;99.90;;;;;;5033793;28;20056;-73
2022/08/09 01:10:26;;;;;;;2.40;0.38;;;14.30;99.90;;;;;;5048633;28;20102;-73
2022/08/09 01:13:06;;;;;;;1.55;0.17;;;14.30;99.90;;;;;;5032794;28;20067;-73
2022/08/09 01:15:39;;;;;;;1.58;0.40;;;14.30;99.90;;;;;;5033323;28;20394;-73
2022/08/09 01:18:09;;;;;;;1.52;0.20;;;14.30;99.90;;;;;;5031930;28;20108;-73
2022/08/09 01:21:05;;;;;;;1.17;0.20;;;14.20;99.90;;;;;;5032957;28;20025;-73
2022/08/09 01:24:12;;;;;;;0.88;0.30;;;14.20;99.90;;;;;;5033065;28;20033;-73
2022/08/09 01:26:55;;;;;;;1.77;0.10;;;14.20;99.90;;;;;;5032769;28;20111;-73
2022/08/09 01:29:36;;;;;;;1.50;0.40;;;14.10;99.90;;;;;;5032582;28;20422;-73
2022/08/09 01:32:04;;;;;;;3.35;0.10;;;14.10;99.90;;;;;;5033059;28;20442;-73
2022/08/09 01:34:34;;;;;;;0.15;0.03;;;14.10;99.90;;;;;;5035921;28;20463;-73
2022/08/09 01:37:02;;;;;;;1.63;0.10;;;14.00;99.90;;;;;;5035396;28;20041;-73
2022/08/09 01:39:33;;;;;;;2.75;0.20;;;13.90;99.90;;;;;;5036723;28;20076;-73
2022/08/09 01:42:01;;;;;;;1.33;0.40;;;13.90;99.90;;;;;;5035553;28;20029;-73
2022/08/09 01:44:29;;;;;;;0.77;0.10;;;13.80;99.90;;;;;;5036556;28;20538;-73
2022/08/09 01:46:55;;;;;;;1.90;0.30;;;13.80;99.90;;;;;;5036615;28;20024;-73
2022/08/09 01:49:21;;;;;;;0.63;0.52;;;13.80;99.90;;;;;;5036555;28;20021;-73
2022/08/09 01:51:54;;;;;;;2.45;0.47;;;13.70;99.90;;;;;;5035128;28;20020;-72
2022/08/09 01:54:24;;;;;;;3.30;0.40;;;13.70;99.90;;;;;;5036399;28;20479;-73
2022/08/09 01:56:51;;;;;;;5.43;0.28;;;13.70;99.90;;;;;;5036456;28;20076;-72
2022/08/09 01:59:19;;;;;;;2.80;0.65;;;13.70;99.90;;;;;;5035040;28;20091;-73
2022/08/09 02:01:49;;;;;;;3.22;0.38;;;13.70;99.90;;;;;;5036263;28;20029;-73
2022/08/09 02:04:16;;;;;;;4.22;0.30;;;13.70;99.90;;;;;;5036109;28;20068;-73
2022/08/09 02:09:29;;;;;;;2.97;0.40;;;13.60;99.90;;;;;;5036705;28;20125;-73
2022/08/09 02:11:55;;;;;;;2.55;0.77;;;13.70;99.90;;;;;;5034453;28;20120;-72
2022/08/09 02:14:22;;;;;;;1.10;0.30;;;13.70;99.90;;;;;;5036616;28;20156;-73
2022/08/09 02:16:49;;;;;;;2.95;0.60;;;13.70;99.90;;;;;;5035996;28;20387;-73
2022/08/09 02:19:15;;;;;;;4.43;0.73;;;13.70;99.90;;;;;;5036105;28;20009;-73
2022/08/09 02:21:46;;;;;;;4.43;0.80;;;13.70;99.90;;;;;;5034881;28;20084;-72
2022/08/09 02:24:17;;;;;;;2.67;0.88;;;13.70;99.90;;;;;;5034962;28;20067;-71
2022/08/09 02:26:44;;;;;;;2.78;0.52;;;13.70;99.90;;;;;;5035746;28;20530;-71
2022/08/09 02:29:19;;;;;;;2.65;0.73;;;13.70;99.90;;;;;;5035740;28;20021;-71
2022/08/09 02:31:46;;;;;;;6.47;0.95;;;13.70;99.90;;;;;;5035640;28;20619;-71
2022/08/09 02:34:19;;;;;;;2.30;0.90;;;13.80;99.90;;;;;;5035583;28;20371;-71
2022/08/09 02:36:50;;;;;;;1.23;0.93;;;13.70;99.90;;;;;;5034708;28;20025;-71
2022/08/09 02:39:20;;;;;;;4.10;1.20;;;13.80;99.90;;;;;;5035594;28;20415;-71
2022/08/09 02:41:57;;;;;;;3.13;0.65;;;13.80;99.90;;;;;;5035419;28;20021;-71
2022/08/09 02:44:26;;;;;;;2.78;1.23;;;13.70;99.90;;;;;;5035468;28;20526;-71
2022/08/09 02:46:54;;;;;;;2.47;0.85;;;13.70;99.90;;;;;;5035239;28;20037;-71
2022/08/09 02:49:20;;;;;;;1.77;1.05;;;13.70;99.90;;;;;;5035565;28;20033;-71
2022/08/09 02:51:52;;;;;;;2.47;1.73;;;13.80;99.90;;;;;;5035595;28;20529;-71
2022/08/09 02:54:19;;;;;;;2.05;1.13;;;13.70;99.90;;;;;;5035909;28;20028;-71
2022/08/09 02:56:48;;;;;;;3.75;1.52;;;13.80;99.90;;;;;;5035179;28;20433;-71
2022/08/09 02:59:15;;;;;;;3.03;0.93;;;13.80;99.90;;;;;;5035161;28;20022;-72
2022/08/09 03:01:43;;;;;;;2.85;1.45;;;13.80;99.90;;;;;;5033799;28;20399;-72
2022/08/09 03:04:11;;;;;;;7.20;1.95;;;13.70;99.90;;;;;;5035043;28;20471;-72
2022/08/09 03:06:39;;;;;;;4.70;1.70;;;13.80;99.90;;;;;;5035035;28;20026;-72
2022/08/09 03:09:06;;;;;;;3.00;1.40;;;13.80;99.90;;;;;;5035263;28;20037;-72
2022/08/09 03:11:32;;;;;;;5.32;2.33;;;13.80;99.90;;;;;;5034781;28;20108;-72
2022/08/09 03:14:00;;;;;;;7.03;1.60;;;13.80;99.90;;;;;;5035172;28;20091;-72
2022/08/09 03:16:26;;;;;;;6.55;2.13;;;13.90;99.90;;;;;;5034787;28;20021;-72
2022/08/09 03:18:52;;;;;;;3.22;1.88;;;13.90;99.90;;;;;;5034842;28;20029;-72
2022/08/09 03:21:21;;;;;;;3.90;1.63;;;14.00;99.90;;;;;;5034637;28;20025;-71
2022/08/09 03:23:46;;;;;;;5.22;2.10;;;14.00;99.90;;;;;;5034772;28;20025;-72
2022/08/09 03:26:17;;;;;;;7.70;2.50;;;14.00;99.90;;;;;;5034917;28;20026;-72
2022/08/09 03:28:45;;;;;;;7.15;1.92;;;14.00;99.90;;;;;;5034827;28;20494;-71
2022/08/09 03:31:11;;;;;;;4.87;1.40;;;14.00;99.90;;;;;;5035095;28;20021;-71
2022/08/09 03:33:38;;;;;;;4.15;1.80;;;14.00;99.90;;;;;;5034742;28;20418;-71
2022/08/09 03:36:04;;;;;;;5.50;2.40;;;14.10;99.90;;;;;;5034430;28;20021;-71
2022/08/09 03:38:29;;;;;;;5.60;2.80;;;14.10;99.90;;;;;;5034997;28;20071;-71
2022/08/09 03:40:56;;;;;;;8.55;2.58;;;14.10;99.90;;;;;;5034275;28;20021;-71
2022/08/09 03:43:22;;;;;;;4.35;2.33;;;14.00;99.90;;;;;;5034288;28;20044;-71
2022/08/09 03:45:47;;;;;;;3.15;1.90;;;14.10;99.90;;;;;;5034227;28;20033;-71
2022/08/09 03:48:13;;;;;;;4.30;1.75;;;14.10;99.90;;;;;;5034817;28;20057;-71
2022/08/09 03:50:40;;;;;;;5.70;2.15;;;14.00;99.90;;;;;;5034972;28;20025;-71
2022/08/09 03:53:08;;;;;;;2.80;1.73;;;14.00;99.90;;;;;;5032821;28;20025;-72
2022/08/09 03:55:34;;;;;;;3.03;1.48;;;14.00;99.90;;;;;;5034128;28;20029;-72
2022/08/09 03:58:00;;;;;;;4.45;1.70;;;14.00;99.90;;;;;;5032522;28;20156;-71
2022/08/09 04:00:26;;;;;;;4.32;2.17;;;14.00;99.90;;;;;;5034266;28;20060;-71
2022/08/09 04:02:53;;;;;;;4.88;1.73;;;14.00;99.90;;;;;;5034405;28;20040;-71
2022/08/09 04:05:19;;;;;;;3.35;1.85;;;13.90;99.90;;;;;;5032784;28;20022;-73
2022/08/09 04:07:46;;;;;;;4.38;1.70;;;14.00;99.90;;;;;;5033938;28;20040;-73
2022/08/09 04:10:13;;;;;;;8.02;2.03;;;13.90;99.90;;;;;;5033823;28;20025;-73
2022/08/09 04:12:43;;;;;;;3.50;1.95;;;13.90;99.90;;;;;;5032236;28;20037;-73
2022/08/09 04:15:09;;;;;;;3.53;1.63;;;13.90;99.90;;;;;;5034145;28;20022;-73
2022/08/09 04:17:35;;;;;;;4.10;2.53;;;13.80;99.90;;;;;;5033755;28;20036;-73
2022/08/09 04:20:00;;;;;;;2.85;1.80;;;13.80;99.90;;;;;;5033714;28;20461;-73
2022/08/09 04:22:26;;;;;;;3.58;1.70;;;13.70;99.90;;;;;;5033604;28;20030;-73
2022/08/09 04:24:51;;;;;;;3.05;2.20;;;13.70;99.90;;;;;;5033814;28;20100;-73
2022/08/09 04:27:17;;;;;;;4.47;2.25;;;13.60;99.90;;;;;;5032319;28;20018;-73
2022/08/09 04:29:43;;;;;;;3.88;1.65;;;13.60;99.90;;;;;;5032341;28;20053;-73
2022/08/09 04:32:08;;;;;;;3.03;1.90;;;13.60;99.90;;;;;;5033692;28;20021;-73
2022/08/09 04:34:34;;;;;;;4.43;2.25;;;13.60;99.90;;;;;;5033731;28;20056;-73
2022/08/09 04:37:00;;;;;;;3.90;2.42;;;13.60;99.90;;;;;;5033554;28;20017;-73
2022/08/09 04:39:27;;;;;;;3.78;1.88;;;13.60;99.90;;;;;;5033425;28;20075;-72
2022/08/09 04:41:55;;;;;;;3.40;1.27;;;13.60;99.90;;;;;;5033267;28;20026;-72
2022/08/09 04:44:21;;;;;;;5.47;1.80;;;13.60;99.90;;;;;;5033381;28;20128;-73
2022/08/09 04:46:46;;;;;;;3.60;2.28;;;13.60;99.90;;;;;;5033585;28;20029;-73
2022/08/09 04:49:12;;;;;;;5.50;2.55;;;13.60;99.90;;;;;;5032331;28;20437;-73
2022/08/09 04:51:37;;;;;;;3.65;2.30;;;13.60;99.90;;;;;;5033216;28;20055;-72
2022/08/09 04:54:03;;;;;;;5.90;2.05;;;13.70;99.90;;;;;;5033181;28;20025;-73
2022/08/09 04:56:29;;;;;;;4.75;1.95;;;13.80;99.90;;;;;;5032036;28;20028;-73
2022/08/09 04:58:55;;;;;;;6.18;2.53;;;13.80;99.90;;;;;;5033261;28;20021;-73
2022/08/09 05:01:20;;;;;;;4.88;2.38;;;13.90;99.90;;;;;;5033086;28;20017;-73
2022/08/09 05:03:47;;;;;;;5.15;1.50;;;13.90;99.90;;;;;;5033191;28;20057;-73
2022/08/09 05:06:13;;;;;;;5.32;2.30;;;14.00;99.90;;;;;;5033153;28;20017;-73
2022/08/09 05:08:39;;;;;;;3.90;1.80;;;14.00;99.90;;;;;;5034736;28;20040;-73
2022/08/09 05:11:05;;;;;;;5.18;2.25;;;14.10;99.90;;;;;;5037384;28;20462;-73
2022/08/09 05:13:31;;;;;;;4.97;1.90;;;14.20;99.90;;;;;;5036937;28;20044;-73
2022/08/09 05:15:57;;;;;;;4.75;2.38;;;14.20;99.90;;;;;;5037288;28;20104;-73
2022/08/09 05:18:24;;;;;;;4.68;2.00;;;14.30;99.90;;;;;;5037035;28;20497;-73
2022/08/09 05:20:49;;;;;;;5.15;1.85;;;14.30;99.90;;;;;;5037521;28;20378;-73
2022/08/09 05:23:15;;;;;;;4.85;2.75;;;14.40;99.90;;;;;;5036920;28;20025;-72
2022/08/09 05:25:40;;;;;;;5.93;2.45;;;14.50;99.90;;;;;;5036850;28;20030;-72
2022/08/09 05:28:06;;;;;;;3.67;1.70;;;14.50;99.90;;;;;;5036849;28;20026;-72
2022/08/09 05:30:33;;;;;;;6.00;2.35;;;14.60;99.90;;;;;;5036830;28;20040;-73
2022/08/09 05:32:59;;;;;;;6.38;2.17;;;14.70;99.90;;;;;;5036591;28;20028;-73
2022/08/09 05:35:25;;;;;;;3.55;2.10;;;14.80;99.90;;;;;;5036806;28;20120;-73
2022/08/09 05:37:51;;;;;;;6.00;2.88;;;14.80;99.90;;;;;;5052045;28;20017;-73
2022/08/09 05:40:17;;;;;;;3.75;1.95;;;15.00;99.90;;;;;;5036627;28;20558;-73
2022/08/09 05:42:42;;;;;;;7.55;2.75;;;15.10;99.90;;;;;;5036480;28;20038;-73
2022/08/09 05:45:09;;;;;;;4.55;2.33;;;15.20;99.90;;;;;;5036778;28;20022;-72
2022/08/09 05:47:34;;;;;;;5.20;2.20;;;15.30;99.90;;;;;;5036436;28;20072;-72
2022/08/09 05:50:00;;;;;;;4.20;2.13;;;15.40;99.90;;;;;;5036548;28;20029;-72
2022/08/09 05:52:25;;;;;;;4.82;2.88;;;15.50;99.90;;;;;;5036623;28;20030;-73
2022/08/09 05:54:51;;;;;;;7.60;1.90;;;15.60;99.90;;;;;;5036423;28;20025;-72
2022/08/09 05:57:16;;;;;;;5.50;2.83;;;15.80;99.90;;;;;;5036611;28;20029;-72
2022/08/09 05:59:42;;;;;;;7.50;2.95;;;15.90;99.90;;;;;;5036496;28;20379;-72
2022/08/09 06:02:08;;;;;;;4.15;2.10;;;15.90;99.90;;;;;;5036393;28;20021;-72
2022/08/09 06:04:35;;;;;;;3.72;2.22;;;16.10;99.90;;;;;;5036473;28;20155;-72
2022/08/09 06:07:01;;;;;;;5.53;1.70;;;16.20;99.90;;;;;;5036126;28;20025;-72
2022/08/09 06:09:27;;;;;;;4.28;2.38;;;16.20;99.90;;;;;;5036604;28;20463;-72
2022/08/09 06:11:55;;;;;;;10.13;2.67;;;16.30;99.90;;;;;;5036066;28;20030;-72
2022/08/09 06:14:20;;;;;;;5.68;2.03;;;16.40;99.90;;;;;;5037361;28;20083;-72
2022/08/09 06:16:46;;;;;;;9.90;2.08;;;16.50;99.90;;;;;;5037669;28;20483;-71
2022/08/09 06:19:13;;;;;;;6.18;2.17;;;16.70;99.90;;;;;;5037705;28;20048;-71
2022/08/09 06:21:39;;;;;;;5.38;1.60;;;16.70;99.90;;;;;;5052566;28;20021;-71
2022/08/09 06:24:05;;;;;;;3.08;1.50;;;16.80;99.90;;;;;;5036665;28;20033;-71
2022/08/09 06:26:33;;;;;;;4.93;1.88;;;16.90;99.90;;;;;;5036642;28;20095;-71
2022/08/09 06:28:59;;;;;;;6.25;1.83;;;17.00;99.90;;;;;;5036940;28;20108;-71
2022/08/09 06:31:25;;;;;;;1.90;1.52;;;17.10;99.90;;;;;;5036771;28;20446;-71
2022/08/09 06:33:50;;;;;;;4.68;1.70;;;17.20;99.90;;;;;;5036375;28;20112;-71
2022/08/09 06:36:16;;;;;;;2.90;1.27;;;17.30;99.90;;;;;;5037783;28;20021;-71
2022/08/09 06:38:42;;;;;;;4.57;1.55;;;17.40;99.90;;;;;;5037225;28;20025;-71
2022/08/09 06:41:08;;;;;;;5.70;1.60;;;17.50;99.90;;;;;;5036039;28;20067;-71
2022/08/09 06:43:34;;;;;;;4.93;1.35;;;17.60;99.90;;;;;;5037743;28;20030;-71
2022/08/09 06:45:59;;;;;;;2.45;1.05;;;17.70;99.90;;;;;;5036482;28;20034;-71
2022/08/09 06:48:25;;;;;;;5.85;0.98;;;17.80;99.90;;;;;;5035003;28;20026;-71
2022/08/09 06:50:52;;;;;;;4.50;0.80;;;17.90;99.90;;;;;;5035372;28;20025;-71
2022/08/09 06:53:18;;;;;;;4.63;1.13;;;18.00;99.90;;;;;;5037596;28;20020;-71
2022/08/09 06:55:43;;;;;;;3.95;0.52;;;18.10;99.90;;;;;;5037024;28;20101;-71
2022/08/09 06:58:09;;;;;;;6.35;0.93;;;18.20;99.90;;;;;;5036867;28;20048;-71
2022/08/09 07:00:35;;;;;;;2.33;0.55;;;18.30;99.90;;;;;;5038092;28;20029;-71
2022/08/09 07:03:02;;;;;;;3.65;1.23;;;18.30;99.90;;;;;;5036923;28;20044;-71
2022/08/09 07:05:28;;;;;;;2.60;0.73;;;18.40;99.90;;;;;;5037434;28;20483;-71
2022/08/09 07:07:54;;;;;;;4.43;1.00;;;18.50;99.90;;;;;;5036507;28;20502;-72
2022/08/09 07:10:21;;;;;;;4.95;2.03;;;18.60;99.90;;;;;;5036351;28;20037;-71
2022/08/09 07:12:47;;;;;;;1.55;0.38;;;18.70;99.90;;;;;;5078122;22;20063;-71
2022/08/09 07:15:12;;;;;;;2.85;0.68;;;18.80;99.90;;;;;;5094666;28;20070;-71
2022/08/09 07:17:38;;;;;;;2.78;0.60;;;19.00;99.90;;;;;;5096460;28;20103;-71
2022/08/09 07:20:04;;;;;;;1.83;0.20;;;19.00;99.90;;;;;;5096156;28;20016;-71
2022/08/09 07:22:30;;;;;;;3.55;0.38;;;19.10;99.90;;;;;;5096547;28;20028;-71
2022/08/09 07:24:55;;;;;;;4.70;0.50;;;19.30;99.90;;;;;;5095881;28;20030;-73
2022/08/09 07:27:21;;;;;;;2.70;0.35;;;19.20;99.90;;;;;;5095085;28;20024;-72
2022/08/09 07:29:46;;;;;;;4.43;0.60;;;19.50;99.90;;;;;;5093534;28;20081;-72
2022/08/09 07:32:12;;;;;;;0.65;0.30;;;19.60;99.90;;;;;;5094073;28;20027;-73
2022/08/09 07:34:37;;;;;;;2.05;0.32;;;19.70;99.90;;;;;;5094730;28;20030;-72
2022/08/09 07:37:03;;;;;;;1.45;0.22;;;19.70;99.90;;;;;;5094638;28;20023;-72
2022/08/09 07:39:29;;;;;;;3.13;0.25;;;19.80;99.90;;;;;;5095093;28;20039;-73
2022/08/09 07:41:57;;;;;;;3.92;0.25;;;19.90;99.90;;;;;;5095090;28;20028;-73
2022/08/09 07:44:23;;;;;;;0.50;0.10;;;20.00;99.90;;;;;;5094737;28;20028;-73
2022/08/09 07:46:49;;;;;;;1.00;0.20;;;20.10;99.90;;;;;;5093163;28;20024;-73
2022/08/09 07:49:14;;;;;;;3.75;0.47;;;20.10;99.90;;;;;;5094648;28;20027;-73
2022/08/09 07:51:40;;;;;;;6.22;0.55;;;20.20;99.90;;;;;;5094217;28;20366;-73
2022/08/09 07:54:06;;;;;;;3.13;0.10;;;20.30;99.90;;;;;;5094710;28;20070;-73
2022/08/09 07:56:32;;;;;;;0.80;0.00;;;20.40;99.90;;;;;;5093126;28;20013;-73
2022/08/09 07:58:58;;;;;;;1.38;0.10;;;20.40;99.90;;;;;;5094203;28;20016;-73
2022/08/09 08:01:24;;;;;;;3.30;0.35;;;20.50;99.90;;;;;;5094137;28;20087;-72
2022/08/09 08:03:49;;;;;;;0.57;0.00;;;20.60;99.90;;;;;;5094421;28;20044;-72
2022/08/09 08:06:15;;;;;;;0.82;0.00;;;20.70;99.90;;;;;;5092858;28;20077;-73
2022/08/09 08:08:40;;;;;;;1.55;0.22;;;20.70;99.90;;;;;;5094100;28;20046;-73
2022/08/09 08:11:06;;;;;;;0.50;0.10;;;20.80;99.90;;;;;;5093903;28;20472;-73
2022/08/09 08:13:32;;;;;;;1.00;0.00;;;20.90;99.90;;;;;;5093910;28;20028;-73
2022/08/09 08:15:57;;;;;;;0.82;0.00;;;21.10;99.90;;;;;;5093872;28;20414;-74
2022/08/09 08:18:23;;;;;;;1.20;0.13;;;21.20;99.90;;;;;;5092533;28;20028;-75
2022/08/09 08:20:48;;;;;;;1.95;0.32;;;21.40;99.90;;;;;;5094065;28;20047;-75
2022/08/09 08:23:16;;;;;;;1.15;0.00;;;21.40;99.90;;;;;;5094003;28;20477;-75
2022/08/09 08:25:41;;;;;;;0.10;0.00;;;21.50;99.90;;;;;;5092715;28;20463;-75
2022/08/09 08:28:07;;;;;;;1.85;0.00;;;21.70;99.90;;;;;;5093860;28;20099;-75
2022/08/09 08:30:33;;;;;;;0.05;0.00;;;21.80;99.90;;;;;;5094421;28;20066;-75
2022/08/09 08:32:58;;;;;;;0.20;0.00;;;21.90;99.90;;;;;;5093609;28;20537;-76
2022/08/09 08:35:24;;;;;;;1.23;0.00;;;22.00;99.90;;;;;;5094015;28;20020;-75
2022/08/09 08:37:50;;;;;;;0.65;0.10;;;22.10;99.90;;;;;;5093663;28;20017;-75
2022/08/09 08:40:16;;;;;;;0.30;0.00;;;22.10;99.90;;;;;;5093595;28;20103;-75
2022/08/09 08:42:42;;;;;;;0.73;0.00;;;22.20;99.90;;;;;;5092726;28;20028;-72
2022/08/09 08:45:10;;;;;;;0.70;0.00;;;22.20;99.90;;;;;;5093468;28;20022;-72
2022/08/09 08:47:38;;;;;;;1.77;0.00;;;22.30;99.90;;;;;;5093485;28;20435;-72
2022/08/09 08:50:05;;;;;;;0.57;0.05;;;22.50;99.90;;;;;;5093446;28;20024;-72
2022/08/09 08:52:32;;;;;;;0.03;0.00;;;22.50;99.90;;;;;;5093298;28;20508;-72
2022/08/09 08:54:59;;;;;;;0.52;0.00;;;22.70;99.90;;;;;;5093395;28;20023;-72
2022/08/09 08:57:26;;;;;;;0.08;0.00;;;22.80;99.90;;;;;;5093580;28;20100;-72
2022/08/09 08:59:53;;;;;;;1.98;0.00;;;22.90;99.90;;;;;;5093350;28;20016;-72
2022/08/09 09:02:25;;;;;;;1.30;0.00;;;23.00;99.90;;;;;;5093620;28;20031;-72
2022/08/09 09:04:52;;;;;;;0.95;0.00;;;23.00;99.90;;;;;;5093413;28;20024;-72
2022/08/09 09:07:18;;;;;;;1.05;0.00;;;23.10;99.90;;;;;;5093681;28;20028;-73
2022/08/09 09:09:46;;;;;;;0.43;0.10;;;23.00;99.90;;;;;;5093272;28;20019;-72
2022/08/09 09:12:14;;;;;;;0.00;0.00;;;23.00;99.90;;;;;;5093054;28;20408;-72
2022/08/09 09:14:41;;;;;;;0.35;0.00;;;23.00;99.90;;;;;;5093384;28;20031;-72
2022/08/09 09:17:07;;;;;;;0.15;0.00;;;23.00;99.90;;;;;;5093412;28;20020;-72
2022/08/09 09:19:32;;;;;;;0.70;0.00;;;23.00;99.90;;;;;;5092206;28;20027;-73
2022/08/09 09:22:15;;;;;;;0.43;0.00;;;23.10;99.90;;;;;;5093183;28;20078;-72
2022/08/09 09:24:47;;;;;;;0.10;0.00;;;23.30;98.20;;;;;;5093250;28;20064;-72
2022/08/09 09:27:17;;;;;;;0.63;0.00;;;23.40;98.30;;;;;;5093560;28;20024;-72
2022/08/09 09:29:43;;;;;;;0.00;0.00;;;23.40;97.70;;;;;;5093639;28;20024;-72
2022/08/09 09:32:10;;;;;;;4.47;0.00;;;23.50;97.60;;;;;;5093061;28;20393;-73
2022/08/09 09:34:37;;;;;;;2.05;0.00;;;23.70;96.80;;;;;;5093388;28;20012;-73
2022/08/09 09:37:05;;;;;;;0.00;0.00;;;23.80;94.60;;;;;;5093138;28;20551;-73
2022/08/09 09:39:31;;;;;;;0.87;0.00;;;23.80;94.10;;;;;;5093026;28;20016;-72
2022/08/09 09:41:58;;;;;;;0.00;0.00;;;23.80;93.20;;;;;;5091746;28;20492;-73
2022/08/09 09:44:31;;;;;;;0.28;0.00;;;23.70;92.50;;;;;;5092696;28;20457;-74
2022/08/09 09:47:08;;;;;;;0.20;0.10;;;23.90;92.30;;;;;;5093052;28;20067;-73
2022/08/09 09:49:35;;;;;;;1.27;0.00;;;24.00;92.40;;;;;;5093058;28;20021;-73
2022/08/09 09:52:07;;;;;;;0.05;0.00;;;24.00;88.10;;;;;;5093509;28;20064;-73
2022/08/09 09:54:36;;;;;;;1.20;0.00;;;24.10;87.90;;;;;;5092818;28;20119;-73
2022/08/09 09:57:13;;;;;;;0.00;0.00;;;24.00;89.20;;;;;;5096600;28;20032;-73
2022/08/09 09:59:39;;;;;;;0.52;0.00;;;24.10;88.10;;;;;;5096671;28;20034;-75
2022/08/09 10:02:05;;;;;;;0.40;0.00;;;24.20;87.90;;;;;;5096520;28;20099;-73
2022/08/09 10:04:31;;;;;;;0.13;0.00;;;24.30;87.10;;;;;;5096471;28;20025;-75
2022/08/09 10:06:56;;;;;;;0.00;0.00;;;24.40;84.20;;;;;;5096731;28;20362;-74
2022/08/09 10:09:22;;;;;;;0.00;0.00;;;24.70;86.00;;;;;;5095129;28;20028;-74
2022/08/09 10:11:58;;;;;;;1.58;0.00;;;24.60;83.30;;;;;;5095063;28;20569;-74
2022/08/09 10:14:29;;;;;;;0.05;0.00;;;24.70;80.90;;;;;;5096259;28;20031;-74
2022/08/09 10:16:55;;;;;;;0.10;0.00;;;24.70;79.40;;;;;;5096404;28;20016;-75
2022/08/09 10:19:34;;;;;;;0.17;0.00;;;24.80;80.20;;;;;;5096745;28;20020;-74
2022/08/09 10:22:00;;;;;;;0.00;0.00;;;24.90;78.90;;;;;;5095486;28;20012;-74
2022/08/09 10:24:26;;;;;;;0.13;0.00;;;25.00;78.50;;;;;;5096018;28;20031;-74
2022/08/09 10:26:55;;;;;;;0.03;0.00;;;25.00;77.50;;;;;;5096150;28;20027;-74
2022/08/09 10:29:21;;;;;;;0.00;0.00;;;25.10;77.90;;;;;;5095092;28;20035;-74
2022/08/09 10:31:48;;;;;;;0.25;0.20;;;25.20;76.60;;;;;;5096202;28;20020;-74
2022/08/09 10:34:14;;;;;;;0.10;0.00;;;25.20;77.60;;;;;;5094453;28;20401;-74
2022/08/09 10:36:41;;;;;;;0.20;0.00;;;25.30;78.60;;;;;;5095895;28;20103;-75
2022/08/09 10:39:07;;;;;;;0.35;0.00;;;25.40;78.20;;;;;;5095824;28;20028;-74
2022/08/09 10:41:34;;;;;;;0.10;0.00;;;25.50;77.40;;;;;;5095739;28;20031;-74
2022/08/09 10:44:00;;;;;;;6.38;0.00;;;25.50;76.60;;;;;;5096000;28;20103;-74
2022/08/09 10:47:03;;;;;;;0.00;0.00;;;25.60;78.10;;;;;;5094416;28;20028;-75
2022/08/09 10:49:35;;;;;;;0.10;0.00;;;25.90;77.90;;;;;;5094423;28;20032;-74
2022/08/09 10:52:17;;;;;;;0.55;0.00;;;26.10;77.30;;;;;;5095641;28;20442;-76
2022/08/09 10:54:42;;;;;;;0.80;0.00;;;26.00;77.00;;;;;;5094373;28;20031;-76
2022/08/09 10:57:12;;;;;;;0.63;0.00;;;26.10;77.60;;;;;;5096009;28;20016;-74
2022/08/09 10:59:39;;;;;;;2.35;0.00;;;26.20;76.50;;;;;;5095400;28;20366;-74
2022/08/09 11:02:11;;;;;;;0.45;0.05;;;26.30;77.70;;;;;;5095389;28;20067;-73
2022/08/09 11:04:37;;;;;;;0.15;0.00;;;26.70;74.20;;;;;;5094110;28;20074;-75
2022/08/09 11:07:02;;;;;;;1.58;0.00;;;26.70;76.90;;;;;;5094572;28;20020;-73
2022/08/09 11:09:37;;;;;;;1.33;0.00;;;27.00;74.50;;;;;;5095270;28;20020;-73
2022/08/09 11:12:18;;;;;;;0.63;0.00;;;27.10;73.70;;;;;;5094948;28;20043;-73
2022/08/09 11:14:47;;;;;;;0.25;0.00;;;27.20;72.70;;;;;;5095238;28;20027;-73
2022/08/09 11:17:12;;;;;;;0.00;0.00;;;27.40;71.90;;;;;;5093867;28;20480;-73
2022/08/09 11:20:03;;;;;;;2.78;0.32;;;27.50;70.40;;;;;;5095144;28;20032;-74
2022/08/09 11:22:43;;;;;;;0.20;0.00;;;27.60;71.80;;;;;;5095177;28;20461;-74
2022/08/09 11:25:20;;;;;;;0.00;0.00;;;27.60;68.60;;;;;;5093050;28;20027;-73
2022/08/09 11:27:49;;;;;;;0.52;0.00;;;27.60;69.00;;;;;;5094874;28;20020;-73
2022/08/09 11:30:31;;;;;;;0.00;0.00;;;27.70;70.10;;;;;;5095071;28;20042;-73
2022/08/09 11:33:02;;;;;;;0.00;0.00;;;27.90;70.40;;;;;;5094851;28;20024;-73
2022/08/09 11:35:38;;;;;;;1.05;0.13;;;28.20;68.50;;;;;;5095133;28;20107;-74
2022/08/09 11:38:14;;;;;;;2.95;0.17;;;28.40;66.70;;;;;;5095452;28;20027;-73
2022/08/09 11:40:40;;;;;;;1.85;0.00;;;28.40;66.10;;;;;;5094858;28;20074;-74
2022/08/09 11:43:06;;;;;;;0.00;0.00;;;28.50;63.60;;;;;;5094549;28;20480;-73
2022/08/09 11:45:39;;;;;;;0.10;0.00;;;28.50;66.40;;;;;;5094511;28;20020;-73
2022/08/09 11:48:10;;;;;;;1.33;0.00;;;28.50;64.40;;;;;;5094439;28;20102;-73
2022/08/09 11:50:55;;;;;;;0.03;0.00;;;28.70;63.70;;;;;;5094451;28;20020;-73
2022/08/09 11:53:21;;;;;;;0.82;0.00;;;28.70;64.10;;;;;;5093601;28;20103;-73
2022/08/09 11:55:48;;;;;;;0.00;0.00;;;28.90;63.60;;;;;;5091703;28;20017;-73
2022/08/09 11:58:14;;;;;;;0.65;0.00;;;29.00;62.60;;;;;;5094195;28;20031;-73
2022/08/09 12:00:50;;;;;;;0.00;0.00;;;29.00;61.50;;;;;;5093436;28;20012;-74
2022/08/09 12:03:18;;;;;;;0.30;0.00;;;29.20;62.90;;;;;;5093571;28;20024;-74
2022/08/09 12:05:45;;;;;;;3.30;0.38;;;29.10;60.00;;;;;;5092935;28;20039;-73
2022/08/09 12:08:13;;;;;;;0.13;0.00;;;29.10;60.00;;;;;;5094378;28;20028;-73
2022/08/09 12:10:49;;;;;;;0.90;0.00;;;29.00;59.50;;;;;;5093995;28;20031;-72
2022/08/09 12:13:37;;;;;;;0.00;0.00;;;29.00;60.50;;;;;;5092888;28;20055;-74
2022/08/09 12:16:05;;;;;;;0.00;0.00;;;29.20;60.20;;;;;;5094175;28;20056;-73
2022/08/09 12:18:32;;;;;;;1.35;0.00;;;29.40;58.80;;;;;;5093557;28;20149;-73
2022/08/09 12:21:02;;;;;;;0.83;0.00;;;29.70;57.60;;;;;;5093806;28;20031;-74
2022/08/09 12:23:28;;;;;;;1.60;0.00;;;29.80;57.50;;;;;;5092619;28;20489;-74
2022/08/09 12:25:54;;;;;;;0.00;0.00;;;29.90;56.50;;;;;;5094071;28;20134;-75
2022/08/09 12:28:22;;;;;;;0.35;0.20;;;30.10;57.60;;;;;;5093675;28;20485;-75
2022/08/09 12:30:48;;;;;;;0.00;0.00;;;30.30;56.00;;;;;;5093803;28;20059;-73
2022/08/09 12:33:15;;;;;;;0.45;0.00;;;30.40;55.00;;;;;;5093759;28;20024;-73
2022/08/09 12:35:42;;;;;;;0.30;0.00;;;30.60;56.50;;;;;;5093737;28;20081;-73
2022/08/09 12:38:27;;;;;;;0.28;0.00;;;30.90;56.30;;;;;;5093706;28;20040;-73
2022/08/09 12:40:54;;;;;;;0.10;0.00;;;31.00;56.20;;;;;;5093608;28;20093;-73
2022/08/09 12:43:23;;;;;;;0.00;0.00;;;31.40;55.70;;;;;;5093698;28;20055;-73
2022/08/09 12:45:50;;;;;;;0.10;0.00;;;31.50;52.80;;;;;;5093621;28;20031;-73
2022/08/09 12:48:16;;;;;;;0.00;0.00;;;31.60;53.20;;;;;;5093581;28;20024;-73
2022/08/09 12:50:43;;;;;;;0.17;0.00;;;31.60;52.30;;;;;;5093554;28;20476;-73
2022/08/09 12:53:23;;;;;;;0.10;0.00;;;31.80;52.20;;;;;;5093575;28;20383;-73
2022/08/09 12:55:49;;;;;;;0.00;0.00;;;32.00;52.90;;;;;;5093723;28;20107;-75